Time;durP1;ratioP1;P1;durP2;ratioP2;P2;SDS_P1;SDS_P2;PMS_P1;PMS_P2;Temp;Humidity;BMP_temperature;BMP_pressure;BME280_temperature;BME280_humidity;BME280_pressure;Samples;Min_cycle;Max_cycle;Signal;HPM_P1;HPM_P2
2023/09/18 00:00:00;;;;;;;10.50;6.22;;;18.70;99.90;;;;;;5000508;28;20242;-80
2023/09/18 00:02:27;;;;;;;7.25;5.45;;;18.60;99.90;;;;;;5000339;28;20759;-80
2023/09/18 00:04:53;;;;;;;10.80;6.85;;;18.60;99.90;;;;;;5000151;28;20183;-80
2023/09/18 00:07:19;;;;;;;9.57;5.65;;;18.60;99.90;;;;;;5017793;28;20183;-81
2023/09/18 00:09:45;;;;;;;10.35;6.90;;;18.60;99.90;;;;;;5017390;28;20313;-80
2023/09/18 00:12:10;;;;;;;10.50;6.63;;;18.50;99.90;;;;;;5000368;28;20175;-80
2023/09/18 00:14:37;;;;;;;11.93;6.90;;;18.50;99.90;;;;;;4999262;28;20266;-80
2023/09/18 00:17:03;;;;;;;10.02;6.95;;;18.50;99.90;;;;;;5017278;28;20538;-80
2023/09/18 00:19:29;;;;;;;10.93;6.22;;;18.50;99.90;;;;;;5017056;28;20254;-80
2023/09/18 00:21:55;;;;;;;13.07;7.10;;;18.50;99.90;;;;;;5000135;28;20184;-80
2023/09/18 00:24:22;;;;;;;7.60;5.82;;;18.50;99.90;;;;;;5002220;28;20214;-80
2023/09/18 00:26:47;;;;;;;8.40;5.93;;;18.50;99.90;;;;;;5016932;28;20208;-80
2023/09/18 00:29:14;;;;;;;9.27;6.50;;;18.50;99.90;;;;;;5017073;28;20282;-81
2023/09/18 00:31:40;;;;;;;9.95;6.22;;;18.50;99.90;;;;;;5000595;28;20180;-81
2023/09/18 00:34:05;;;;;;;9.80;6.78;;;18.50;99.90;;;;;;4999811;28;20175;-80
2023/09/18 00:36:31;;;;;;;10.23;6.13;;;18.50;99.90;;;;;;4999933;28;20262;-80
2023/09/18 00:38:57;;;;;;;9.77;5.70;;;18.50;99.90;;;;;;4999851;28;20230;-81
2023/09/18 00:41:23;;;;;;;10.00;6.53;;;18.50;99.90;;;;;;4999801;28;20187;-81
2023/09/18 00:43:48;;;;;;;10.27;6.75;;;18.60;99.90;;;;;;4999631;28;20258;-81
2023/09/18 00:46:14;;;;;;;9.95;6.53;;;18.50;99.90;;;;;;4999980;28;20294;-80
2023/09/18 00:48:41;;;;;;;9.35;5.97;;;18.50;99.90;;;;;;5017143;28;20202;-80
2023/09/18 00:51:08;;;;;;;12.80;6.43;;;18.50;99.90;;;;;;4999436;28;20266;-80
2023/09/18 00:53:34;;;;;;;10.18;7.05;;;18.40;99.90;;;;;;4999488;28;20218;-80
2023/09/18 00:56:00;;;;;;;14.63;6.65;;;18.40;99.90;;;;;;4999852;28;20183;-80
2023/09/18 00:58:27;;;;;;;11.93;7.10;;;18.40;99.90;;;;;;5017590;28;20176;-80
2023/09/18 01:00:53;;;;;;;11.60;6.97;;;18.40;99.90;;;;;;4999690;28;20192;-81
2023/09/18 01:03:21;;;;;;;11.45;6.85;;;18.40;99.90;;;;;;5018247;28;20258;-81
2023/09/18 01:05:47;;;;;;;11.18;6.70;;;18.40;99.90;;;;;;4999702;28;20215;-81
2023/09/18 01:08:12;;;;;;;11.23;7.28;;;18.40;99.90;;;;;;5017755;28;20175;-80
2023/09/18 01:11:05;;;;;;;9.32;5.85;;;18.40;99.90;;;;;;4999636;28;20655;-80
2023/09/18 01:13:41;;;;;;;11.90;7.30;;;18.40;99.90;;;;;;5000215;28;20204;-80
2023/09/18 01:16:30;;;;;;;10.00;7.45;;;18.40;99.90;;;;;;5001547;28;20184;-81
2023/09/18 01:18:56;;;;;;;11.90;6.70;;;18.40;99.90;;;;;;4998847;28;20692;-81
2023/09/18 01:21:21;;;;;;;11.90;7.10;;;18.30;99.90;;;;;;4999754;28;20191;-80
2023/09/18 01:23:49;;;;;;;12.57;7.22;;;18.30;99.90;;;;;;5000171;28;20180;-80
2023/09/18 01:26:14;;;;;;;14.65;8.07;;;18.30;99.90;;;;;;4998221;28;20298;-80
2023/09/18 01:28:40;;;;;;;11.68;6.95;;;18.30;99.90;;;;;;5019034;28;20226;-80
2023/09/18 01:31:06;;;;;;;12.60;7.65;;;18.30;99.90;;;;;;5019956;28;20671;-80
2023/09/18 01:33:34;;;;;;;9.82;6.97;;;18.30;99.90;;;;;;5019936;28;20180;-80
2023/09/18 01:36:02;;;;;;;10.98;8.18;;;18.30;99.90;;;;;;5020180;28;20210;-80
2023/09/18 01:38:29;;;;;;;11.93;7.45;;;18.30;99.90;;;;;;5019992;28;20245;-80
2023/09/18 01:40:55;;;;;;;9.82;7.28;;;18.30;99.90;;;;;;5002219;28;20660;-80
2023/09/18 01:43:21;;;;;;;14.88;7.10;;;18.30;99.90;;;;;;5002092;28;20180;-80
2023/09/18 01:45:47;;;;;;;12.40;7.72;;;18.20;99.90;;;;;;5002230;28;20294;-80
2023/09/18 01:48:13;;;;;;;11.30;7.05;;;18.20;99.90;;;;;;5002523;28;20179;-80
2023/09/18 01:50:40;;;;;;;11.52;6.95;;;18.20;99.90;;;;;;5002987;28;20172;-80
2023/09/18 01:53:06;;;;;;;11.95;7.63;;;18.10;99.90;;;;;;5002825;28;20203;-80
2023/09/18 01:55:32;;;;;;;9.70;7.03;;;18.10;99.90;;;;;;5020412;28;20186;-80
2023/09/18 01:57:58;;;;;;;13.90;8.20;;;18.10;99.90;;;;;;5002699;28;20207;-80
2023/09/18 02:00:24;;;;;;;10.38;7.07;;;18.10;99.90;;;;;;5002461;28;20211;-80
2023/09/18 02:02:50;;;;;;;10.68;7.22;;;18.10;99.90;;;;;;5002750;28;20180;-80
2023/09/18 02:05:16;;;;;;;13.80;7.63;;;18.10;99.90;;;;;;5003113;28;20235;-80
2023/09/18 02:07:42;;;;;;;9.90;7.00;;;18.00;99.90;;;;;;5016357;28;20214;-80
2023/09/18 02:10:08;;;;;;;15.95;8.27;;;18.00;99.90;;;;;;5000660;28;20204;-80
2023/09/18 02:12:34;;;;;;;9.98;7.63;;;18.00;99.90;;;;;;4983589;28;20243;-80
2023/09/18 02:15:04;;;;;;;10.75;7.93;;;18.00;99.90;;;;;;4983242;28;20653;-81
2023/09/18 02:17:29;;;;;;;12.93;7.22;;;18.00;99.90;;;;;;5001577;28;20633;-80
2023/09/18 02:19:55;;;;;;;11.90;7.05;;;18.00;99.90;;;;;;4999741;28;20204;-80
2023/09/18 02:22:21;;;;;;;11.55;7.32;;;18.00;99.90;;;;;;4983846;28;20207;-80
2023/09/18 02:24:47;;;;;;;14.90;7.45;;;18.00;99.90;;;;;;4983415;28;20185;-80
2023/09/18 02:27:13;;;;;;;9.23;7.20;;;17.90;99.90;;;;;;4982885;28;20302;-81
2023/09/18 02:29:38;;;;;;;10.73;7.78;;;17.90;99.90;;;;;;4998498;28;20201;-80
2023/09/18 02:32:04;;;;;;;11.57;6.90;;;18.00;99.90;;;;;;4982363;28;20203;-80
2023/09/18 02:34:30;;;;;;;13.70;7.88;;;18.00;99.90;;;;;;5000542;28;20231;-80
2023/09/18 02:36:56;;;;;;;10.80;7.72;;;18.00;99.90;;;;;;5000314;28;20172;-80
2023/09/18 02:39:22;;;;;;;13.07;7.57;;;18.10;99.90;;;;;;5015886;28;20688;-80
2023/09/18 02:41:48;;;;;;;11.02;7.28;;;18.10;99.90;;;;;;5017872;28;20192;-80
2023/09/18 02:44:14;;;;;;;12.93;7.38;;;18.10;99.90;;;;;;5017576;28;20176;-80
2023/09/18 02:46:42;;;;;;;9.40;7.18;;;18.10;99.90;;;;;;5017898;28;20211;-80
2023/09/18 02:49:07;;;;;;;14.27;8.07;;;18.20;99.90;;;;;;5001838;28;20615;-80
2023/09/18 02:51:33;;;;;;;10.55;7.40;;;18.20;99.90;;;;;;5019609;28;20255;-80
2023/09/18 02:53:59;;;;;;;11.93;7.53;;;18.30;99.90;;;;;;5018505;28;20263;-80
2023/09/18 02:56:24;;;;;;;12.95;7.35;;;18.30;99.90;;;;;;5019767;28;20180;-80
2023/09/18 02:58:51;;;;;;;10.43;7.85;;;18.30;99.90;;;;;;5018295;28;20350;-80
2023/09/18 03:01:17;;;;;;;8.32;6.72;;;18.40;99.90;;;;;;5018504;28;20187;-80
2023/09/18 03:03:43;;;;;;;11.90;7.15;;;18.40;99.90;;;;;;5018447;28;20262;-80
2023/09/18 03:06:08;;;;;;;9.07;7.22;;;18.30;99.90;;;;;;5018305;28;20220;-80
2023/09/18 03:08:34;;;;;;;10.77;7.18;;;18.30;99.90;;;;;;5019295;28;20253;-81
2023/09/18 03:11:00;;;;;;;11.20;6.72;;;18.40;99.90;;;;;;5001226;28;20691;-81
2023/09/18 03:13:28;;;;;;;10.98;7.03;;;18.40;99.90;;;;;;5001759;28;20184;-80
2023/09/18 03:15:54;;;;;;;11.43;7.00;;;18.40;99.90;;;;;;5018651;28;20229;-81
2023/09/18 03:18:21;;;;;;;10.35;6.18;;;18.50;99.90;;;;;;5002305;28;20187;-81
2023/09/18 03:20:48;;;;;;;11.55;6.00;;;18.50;99.90;;;;;;4985450;28;20222;-81
2023/09/18 03:23:14;;;;;;;10.10;6.15;;;18.60;99.90;;;;;;5002077;28;20179;-81
2023/09/18 03:25:43;;;;;;;9.02;5.38;;;18.70;99.90;;;;;;5019022;28;20215;-80
2023/09/18 03:28:09;;;;;;;11.65;5.07;;;18.90;99.90;;;;;;5000724;28;20258;-81
2023/09/18 03:30:36;;;;;;;10.02;5.03;;;19.00;99.90;;;;;;5000867;28;20176;-81
2023/09/18 03:33:02;;;;;;;8.02;4.90;;;19.20;99.90;;;;;;4985169;28;20180;-81
2023/09/18 03:35:32;;;;;;;13.13;5.10;;;19.50;99.90;;;;;;5001459;28;20246;-80
2023/09/18 03:37:59;;;;;;;11.30;4.82;;;19.60;99.90;;;;;;4985581;28;20274;-81
2023/09/18 03:40:26;;;;;;;7.88;4.90;;;19.80;99.90;;;;;;5001955;28;20196;-81
2023/09/18 03:42:52;;;;;;;8.55;5.40;;;19.80;99.90;;;;;;5000922;28;20183;-81
2023/09/18 03:45:20;;;;;;;11.32;4.65;;;20.00;99.90;;;;;;5000435;28;20211;-81
2023/09/18 03:47:49;;;;;;;10.23;4.88;;;20.10;99.90;;;;;;5000486;28;20183;-81
2023/09/18 03:50:15;;;;;;;7.82;4.50;;;20.30;99.90;;;;;;5000137;28;20206;-81
2023/09/18 03:52:43;;;;;;;9.85;4.75;;;20.40;99.90;;;;;;5018497;28;20186;-81
2023/09/18 03:55:09;;;;;;;8.98;4.60;;;20.40;99.90;;;;;;5000833;28;20262;-81
2023/09/18 03:57:36;;;;;;;8.95;4.85;;;20.40;99.90;;;;;;5000973;28;20172;-81
2023/09/18 04:00:04;;;;;;;8.55;4.55;;;20.50;99.90;;;;;;5000951;28;20199;-81
2023/09/18 04:02:34;;;;;;;10.18;4.55;;;20.40;99.90;;;;;;5000197;28;20184;-81
2023/09/18 04:05:00;;;;;;;10.55;4.03;;;20.50;99.90;;;;;;5000664;28;20180;-81
2023/09/18 04:07:27;;;;;;;13.40;4.45;;;20.50;99.90;;;;;;4999122;28;20184;-81
2023/09/18 04:09:56;;;;;;;7.60;4.38;;;20.60;99.90;;;;;;4965482;28;20270;-81
2023/09/18 04:12:22;;;;;;;12.85;4.30;;;20.70;99.90;;;;;;4982505;28;20204;-81
2023/09/18 04:14:51;;;;;;;12.10;4.50;;;20.80;99.90;;;;;;4982048;28;20176;-81
2023/09/18 04:17:18;;;;;;;11.38;4.28;;;20.90;99.90;;;;;;4981664;28;20252;-81
2023/09/18 04:19:48;;;;;;;8.25;4.20;;;21.10;99.90;;;;;;4981659;28;20211;-81
2023/09/18 04:22:14;;;;;;;7.82;4.22;;;21.10;99.90;;;;;;4981280;28;20180;-81
2023/09/18 04:24:40;;;;;;;8.65;3.92;;;21.10;99.90;;;;;;4965297;28;20283;-81
2023/09/18 04:27:07;;;;;;;9.75;4.10;;;21.10;99.90;;;;;;4999183;28;20204;-81
2023/09/18 04:29:36;;;;;;;7.20;3.95;;;21.00;99.90;;;;;;4984750;28;20207;-82
2023/09/18 04:32:04;;;;;;;10.75;3.83;;;21.10;99.90;;;;;;4983340;28;20219;-81
2023/09/18 04:34:34;;;;;;;9.40;4.43;;;21.00;99.90;;;;;;4998316;28;20223;-81
2023/09/18 04:37:01;;;;;;;11.23;4.35;;;21.10;99.90;;;;;;4981970;28;20185;-81
2023/09/18 04:39:29;;;;;;;11.07;3.90;;;21.10;99.90;;;;;;5018683;28;20242;-80
2023/09/18 04:41:55;;;;;;;11.95;4.20;;;21.10;99.90;;;;;;5001440;28;20180;-81
2023/09/18 04:44:21;;;;;;;13.07;3.80;;;21.10;99.90;;;;;;5001519;28;20207;-81
2023/09/18 04:46:48;;;;;;;9.52;4.22;;;21.10;99.90;;;;;;5001495;28;20199;-80
2023/09/18 04:49:17;;;;;;;9.80;3.72;;;21.10;99.90;;;;;;5002762;28;20202;-80
2023/09/18 04:51:43;;;;;;;16.95;4.40;;;21.10;99.90;;;;;;5001095;28;20199;-81
2023/09/18 04:54:12;;;;;;;15.63;4.30;;;21.10;99.90;;;;;;5000595;28;20175;-80
2023/09/18 04:56:39;;;;;;;11.15;4.50;;;21.10;99.90;;;;;;4999832;28;20179;-81
2023/09/18 04:59:08;;;;;;;15.05;5.13;;;21.10;99.90;;;;;;4984826;28;20206;-81
2023/09/18 05:01:33;;;;;;;13.15;5.18;;;21.10;99.90;;;;;;4983951;28;20188;-80
2023/09/18 05:04:01;;;;;;;12.35;4.45;;;21.20;99.90;;;;;;5000969;28;20249;-81
2023/09/18 05:06:30;;;;;;;12.43;5.03;;;21.20;99.90;;;;;;4999572;28;20207;-80
2023/09/18 05:08:57;;;;;;;12.50;5.00;;;21.10;99.90;;;;;;4986515;28;20239;-80
2023/09/18 05:11:26;;;;;;;20.88;5.22;;;21.10;99.90;;;;;;4980877;28;20661;-81
2023/09/18 05:13:52;;;;;;;9.05;4.07;;;21.10;99.90;;;;;;4980603;28;20212;-81
2023/09/18 05:16:28;;;;;;;13.50;4.53;;;21.00;99.90;;;;;;4980601;28;20208;-80
2023/09/18 05:18:54;;;;;;;14.70;4.28;;;21.00;99.90;;;;;;4979615;28;20243;-81
2023/09/18 05:21:24;;;;;;;12.30;4.20;;;21.00;99.90;;;;;;4979794;28;20204;-81
2023/09/18 05:23:56;;;;;;;8.73;3.75;;;20.90;99.90;;;;;;4980427;28;20657;-81
2023/09/18 05:26:24;;;;;;;18.92;4.38;;;20.90;99.90;;;;;;4964621;28;20228;-84
2023/09/18 05:28:57;;;;;;;8.43;3.70;;;20.80;99.90;;;;;;4982091;28;20226;-83
2023/09/18 05:31:24;;;;;;;12.65;4.07;;;20.80;99.90;;;;;;4982207;28;20240;-83
2023/09/18 05:33:52;;;;;;;12.82;4.05;;;20.80;99.90;;;;;;4982211;28;20235;-83
2023/09/18 05:36:25;;;;;;;10.93;3.80;;;20.70;99.90;;;;;;4999376;28;20169;-82
2023/09/18 05:38:54;;;;;;;10.90;3.83;;;20.70;99.90;;;;;;4978494;28;20215;-82
2023/09/18 05:41:26;;;;;;;11.23;4.50;;;20.70;99.90;;;;;;4998087;28;20187;-81
2023/09/18 05:44:03;;;;;;;10.80;4.20;;;20.60;99.90;;;;;;4998726;28;20215;-82
2023/09/18 05:46:34;;;;;;;12.93;4.18;;;20.60;99.90;;;;;;4998252;28;20203;-81
2023/09/18 05:49:03;;;;;;;11.63;3.88;;;20.60;99.90;;;;;;4998336;28;20696;-81
2023/09/18 05:51:29;;;;;;;14.90;4.30;;;20.60;99.90;;;;;;4981312;28;20183;-82
2023/09/18 05:53:57;;;;;;;12.52;3.80;;;20.60;99.90;;;;;;4982742;28;20570;-82
2023/09/18 05:56:23;;;;;;;8.50;4.03;;;20.50;99.90;;;;;;4982447;28;20195;-81
2023/09/18 05:58:49;;;;;;;7.95;3.90;;;20.50;99.90;;;;;;5016330;28;20195;-81
2023/09/18 06:01:18;;;;;;;11.32;4.25;;;20.50;99.90;;;;;;4998818;28;20184;-81
2023/09/18 06:03:45;;;;;;;8.65;3.90;;;20.50;99.90;;;;;;5017600;28;20183;-81
2023/09/18 06:06:11;;;;;;;8.43;3.92;;;20.50;99.90;;;;;;5000477;28;20680;-81
2023/09/18 06:08:41;;;;;;;12.50;4.40;;;20.50;99.90;;;;;;4998891;28;20629;-82
2023/09/18 06:11:08;;;;;;;13.15;4.38;;;20.50;99.90;;;;;;4998869;28;20245;-82
2023/09/18 06:13:34;;;;;;;10.95;4.22;;;20.50;99.90;;;;;;5017416;28;20179;-81
2023/09/18 06:16:06;;;;;;;11.85;4.13;;;20.50;99.90;;;;;;5002159;28;20184;-77
2023/09/18 06:18:35;;;;;;;12.40;4.00;;;20.50;99.90;;;;;;4999597;28;20605;-77
2023/09/18 06:21:03;;;;;;;12.68;4.57;;;20.50;99.90;;;;;;4999685;28;20176;-77
2023/09/18 06:23:28;;;;;;;13.20;4.15;;;20.50;99.90;;;;;;4999612;28;20187;-76
2023/09/18 06:25:56;;;;;;;8.13;4.10;;;20.50;99.90;;;;;;4999255;28;20287;-77
2023/09/18 06:28:28;;;;;;;10.13;3.85;;;20.50;99.90;;;;;;4999272;28;20187;-77
2023/09/18 06:30:55;;;;;;;9.75;4.22;;;20.50;99.90;;;;;;4999238;28;20596;-77
2023/09/18 06:33:21;;;;;;;9.20;3.90;;;20.40;99.90;;;;;;4999275;28;20176;-76
2023/09/18 06:35:48;;;;;;;13.55;4.15;;;20.40;99.90;;;;;;4999534;28;20183;-76
2023/09/18 06:38:15;;;;;;;9.88;4.25;;;20.40;99.90;;;;;;4983140;28;20202;-76
2023/09/18 06:40:41;;;;;;;12.35;3.85;;;20.40;99.90;;;;;;4999139;28;20648;-76
2023/09/18 06:43:10;;;;;;;10.48;4.43;;;20.40;99.90;;;;;;4999117;28;20737;-76
2023/09/18 06:45:37;;;;;;;8.15;3.70;;;20.40;99.90;;;;;;4998802;28;20204;-77
2023/09/18 06:48:04;;;;;;;12.23;4.18;;;20.40;99.90;;;;;;4999068;28;20257;-76
2023/09/18 06:50:34;;;;;;;6.45;3.58;;;20.30;99.90;;;;;;4998868;28;20199;-77
2023/09/18 06:53:03;;;;;;;10.70;3.72;;;20.30;99.90;;;;;;4998921;28;20176;-76
2023/09/18 06:55:29;;;;;;;6.68;3.47;;;20.30;99.90;;;;;;4999164;28;20234;-76
2023/09/18 06:57:56;;;;;;;9.70;3.92;;;20.30;99.90;;;;;;4998873;28;20215;-76
2023/09/18 07:00:25;;;;;;;12.65;4.10;;;20.30;99.90;;;;;;4998517;28;20680;-77
2023/09/18 07:02:51;;;;;;;6.45;3.72;;;20.30;99.90;;;;;;4999003;28;20184;-76
2023/09/18 07:05:17;;;;;;;8.35;3.30;;;20.30;99.90;;;;;;4999739;28;20180;-76
2023/09/18 07:07:57;;;;;;;11.50;3.80;;;20.30;99.90;;;;;;4979126;28;20653;-77
2023/09/18 07:10:23;;;;;;;9.25;3.78;;;20.30;99.90;;;;;;4963725;28;20319;-77
2023/09/18 07:12:49;;;;;;;9.45;3.67;;;20.40;99.90;;;;;;4995163;28;20550;-76
2023/09/18 07:15:17;;;;;;;8.30;3.60;;;20.40;99.90;;;;;;4996146;28;20263;-77
2023/09/18 07:17:45;;;;;;;7.05;3.47;;;20.40;99.90;;;;;;4995123;28;20177;-77
2023/09/18 07:20:13;;;;;;;10.35;3.50;;;20.40;99.90;;;;;;4994989;28;20208;-77
2023/09/18 07:22:47;;;;;;;8.77;3.30;;;20.40;99.90;;;;;;4979047;28;20260;-76
2023/09/18 07:25:13;;;;;;;10.90;3.53;;;20.40;99.90;;;;;;4977600;28;20181;-77
2023/09/18 07:27:44;;;;;;;11.95;3.80;;;20.40;99.90;;;;;;4978957;28;20665;-77
2023/09/18 07:30:12;;;;;;;9.07;3.15;;;20.50;99.90;;;;;;4995048;28;20565;-77
2023/09/18 07:32:40;;;;;;;10.18;3.30;;;20.40;99.90;;;;;;4978841;28;20195;-77
2023/09/18 07:35:09;;;;;;;11.10;3.90;;;20.40;99.90;;;;;;4995048;28;20183;-76
2023/09/18 07:37:36;;;;;;;7.45;3.05;;;20.40;99.90;;;;;;4999179;28;20176;-77
2023/09/18 07:40:05;;;;;;;6.90;3.22;;;20.40;99.90;;;;;;5015648;28;20200;-77
2023/09/18 07:42:31;;;;;;;11.43;3.70;;;20.40;99.90;;;;;;4998046;28;20176;-77
2023/09/18 07:44:58;;;;;;;6.47;3.03;;;20.40;99.90;;;;;;4998120;28;20180;-77
2023/09/18 07:47:26;;;;;;;12.57;4.10;;;20.40;99.90;;;;;;4997704;28;20203;-76
2023/09/18 07:49:56;;;;;;;7.35;2.92;;;20.40;99.90;;;;;;4998738;28;20241;-76
2023/09/18 07:52:27;;;;;;;7.75;3.40;;;20.40;99.90;;;;;;4997871;28;20215;-77
2023/09/18 07:54:53;;;;;;;7.60;3.22;;;20.40;99.90;;;;;;4982467;28;20552;-77
2023/09/18 07:57:22;;;;;;;9.85;3.33;;;20.40;99.90;;;;;;4999682;28;20184;-77
2023/09/18 07:59:49;;;;;;;9.50;3.47;;;20.40;99.90;;;;;;5005500;28;20227;-76
2023/09/18 08:02:17;;;;;;;13.45;3.80;;;20.40;99.90;;;;;;4999973;28;20184;-77
2023/09/18 08:04:44;;;;;;;8.20;3.22;;;20.40;99.90;;;;;;4999241;28;20183;-77
2023/09/18 08:07:14;;;;;;;8.75;3.30;;;20.40;99.90;;;;;;5016037;28;20223;-77
2023/09/18 08:09:52;;;;;;;5.35;3.22;;;20.40;99.90;;;;;;4978463;28;20310;-77
2023/09/18 08:12:23;;;;;;;7.05;3.20;;;20.40;99.90;;;;;;4995001;28;20183;-77
2023/09/18 08:14:50;;;;;;;10.43;3.30;;;20.40;99.90;;;;;;4994654;28;20180;-76
2023/09/18 08:17:18;;;;;;;8.63;3.40;;;20.50;99.90;;;;;;4995817;28;20172;-77
2023/09/18 08:19:44;;;;;;;6.65;3.55;;;20.40;99.90;;;;;;4994416;28;20208;-77
2023/09/18 08:22:16;;;;;;;7.45;3.33;;;20.50;99.90;;;;;;4994377;28;20186;-77
2023/09/18 08:24:45;;;;;;;8.27;2.97;;;20.40;99.90;;;;;;4994842;28;20181;-77
2023/09/18 08:27:11;;;;;;;5.75;3.13;;;20.50;99.90;;;;;;4995965;28;20283;-77
2023/09/18 08:29:38;;;;;;;7.35;2.85;;;20.50;99.90;;;;;;4993895;28;20214;-77
2023/09/18 08:32:04;;;;;;;7.78;3.65;;;20.50;99.90;;;;;;4977334;28;20300;-75
2023/09/18 08:34:30;;;;;;;5.50;2.95;;;20.60;99.90;;;;;;4995312;28;20204;-75
2023/09/18 08:36:56;;;;;;;6.22;2.97;;;20.70;99.90;;;;;;4995295;28;20180;-76
2023/09/18 08:39:21;;;;;;;6.68;3.20;;;20.70;99.90;;;;;;5011552;28;20208;-76
2023/09/18 08:41:54;;;;;;;5.97;3.35;;;20.80;99.90;;;;;;5015052;28;20179;-77
2023/09/18 08:44:25;;;;;;;6.10;3.13;;;20.80;99.90;;;;;;4997552;28;20178;-77
2023/09/18 08:46:51;;;;;;;5.88;2.88;;;20.80;99.90;;;;;;5014599;28;20191;-77
2023/09/18 08:49:18;;;;;;;9.48;2.97;;;20.80;99.90;;;;;;4997349;28;20191;-77
2023/09/18 08:51:45;;;;;;;7.43;2.90;;;20.70;99.90;;;;;;4997435;28;20589;-77
2023/09/18 08:54:11;;;;;;;5.18;3.00;;;20.70;99.90;;;;;;4997424;28;20183;-77
2023/09/18 08:56:37;;;;;;;5.55;2.80;;;20.70;99.90;;;;;;4996991;28;20640;-76
2023/09/18 08:59:03;;;;;;;6.50;3.03;;;20.70;99.90;;;;;;4997057;28;20614;-76
2023/09/18 09:01:28;;;;;;;4.55;3.00;;;20.70;99.90;;;;;;5014589;28;20172;-76
2023/09/18 09:03:55;;;;;;;7.95;2.85;;;20.80;99.90;;;;;;5014428;28;20633;-77
2023/09/18 09:06:21;;;;;;;5.75;2.95;;;20.80;99.90;;;;;;4996745;28;20203;-77
2023/09/18 09:08:46;;;;;;;3.10;2.63;;;20.90;99.90;;;;;;5014369;28;20569;-77
2023/09/18 09:11:12;;;;;;;4.22;2.50;;;20.90;99.90;;;;;;5014636;28;20742;-77
2023/09/18 09:13:39;;;;;;;5.60;2.63;;;20.90;99.90;;;;;;4996981;28;20183;-77
2023/09/18 09:16:04;;;;;;;4.82;2.90;;;20.90;99.90;;;;;;4996881;28;20184;-77
2023/09/18 09:18:33;;;;;;;6.85;2.97;;;20.90;99.90;;;;;;4996682;28;20187;-77
2023/09/18 09:21:04;;;;;;;6.10;2.90;;;20.90;99.90;;;;;;5014934;28;20631;-77
2023/09/18 09:23:52;;;;;;;4.00;2.65;;;21.00;99.90;;;;;;4997180;28;20243;-77
2023/09/18 09:26:19;;;;;;;6.80;2.92;;;21.10;99.90;;;;;;4996998;28;20206;-77
2023/09/18 09:28:46;;;;;;;4.00;2.25;;;21.20;99.90;;;;;;5014627;28;20192;-78
2023/09/18 09:31:22;;;;;;;6.72;2.97;;;21.30;99.90;;;;;;4997032;28;20662;-77
2023/09/18 09:34:05;;;;;;;4.38;2.42;;;21.30;99.90;;;;;;4996853;28;20274;-77
2023/09/18 09:36:32;;;;;;;2.92;2.33;;;21.30;99.90;;;;;;4997055;28;20199;-77
2023/09/18 09:38:58;;;;;;;7.72;3.55;;;21.40;99.90;;;;;;4998004;28;20218;-78
2023/09/18 09:41:26;;;;;;;6.07;2.50;;;21.60;99.90;;;;;;4997689;28;20681;-78
2023/09/18 09:43:51;;;;;;;5.20;2.75;;;21.80;99.90;;;;;;5014600;28;20176;-77
2023/09/18 09:46:18;;;;;;;3.35;2.60;;;22.00;99.90;;;;;;4997049;28;20207;-77
2023/09/18 09:48:59;;;;;;;4.53;2.30;;;22.10;99.90;;;;;;4998779;28;20282;-77
2023/09/18 09:51:25;;;;;;;5.28;2.35;;;22.10;99.90;;;;;;5000369;28;20538;-77
2023/09/18 09:53:51;;;;;;;5.88;2.55;;;22.10;99.90;;;;;;5000560;28;20179;-78
2023/09/18 09:56:25;;;;;;;5.00;2.33;;;22.10;99.90;;;;;;5000327;28;20184;-78
2023/09/18 09:59:08;;;;;;;5.03;2.55;;;22.20;99.90;;;;;;5000562;28;20209;-78
2023/09/18 10:01:35;;;;;;;3.22;2.20;;;22.20;99.90;;;;;;5000482;28;20191;-78
2023/09/18 10:04:19;;;;;;;3.47;2.30;;;22.30;99.90;;;;;;5001226;28;20275;-78
2023/09/18 10:06:55;;;;;;;4.40;2.30;;;22.40;99.90;;;;;;5000450;28;20623;-78
2023/09/18 10:09:26;;;;;;;5.40;2.20;;;22.30;99.90;;;;;;4999997;28;20207;-79
2023/09/18 10:11:55;;;;;;;4.28;2.40;;;22.30;99.90;;;;;;5000165;28;20199;-78
2023/09/18 10:14:34;;;;;;;6.03;2.45;;;22.30;99.90;;;;;;5000304;28;20656;-77
2023/09/18 10:17:19;;;;;;;6.28;2.40;;;22.30;99.90;;;;;;5000040;28;20171;-79
2023/09/18 10:20:19;;;;;;;5.22;2.38;;;22.20;99.90;;;;;;5017511;28;20203;-78
2023/09/18 10:22:57;;;;;;;6.57;2.25;;;22.10;99.90;;;;;;5000688;28;20183;-79
2023/09/18 10:25:31;;;;;;;5.30;2.38;;;22.00;99.90;;;;;;5000467;28;20251;-79
2023/09/18 10:28:03;;;;;;;3.85;2.28;;;22.00;99.90;;;;;;5017286;28;20155;-77
2023/09/18 10:30:37;;;;;;;5.05;2.60;;;21.80;99.90;;;;;;4999219;28;20213;-77
2023/09/18 10:33:03;;;;;;;5.13;2.45;;;21.80;99.90;;;;;;4999110;28;20554;-77
2023/09/18 10:35:30;;;;;;;4.47;2.20;;;21.90;99.90;;;;;;4998700;28;20184;-77
2023/09/18 10:38:02;;;;;;;5.95;2.35;;;21.90;99.90;;;;;;4998948;28;20180;-77
2023/09/18 10:40:32;;;;;;;4.03;2.50;;;22.00;99.90;;;;;;4999392;28;20203;-77
2023/09/18 10:43:02;;;;;;;5.10;2.45;;;22.00;99.90;;;;;;5017561;28;20223;-78
2023/09/18 10:45:33;;;;;;;6.40;2.30;;;22.20;99.90;;;;;;4999130;28;20180;-78
2023/09/18 10:48:02;;;;;;;8.70;2.47;;;22.30;99.90;;;;;;4999136;28;20242;-76
2023/09/18 10:50:30;;;;;;;6.78;2.33;;;22.40;99.90;;;;;;4999199;28;20273;-78
2023/09/18 10:52:59;;;;;;;5.63;2.33;;;22.50;99.90;;;;;;4998746;28;20198;-78
2023/09/18 10:55:26;;;;;;;3.75;2.53;;;22.70;99.90;;;;;;4998694;28;20176;-77
2023/09/18 10:57:54;;;;;;;4.47;2.55;;;22.90;99.90;;;;;;5016406;28;20183;-77
2023/09/18 11:00:25;;;;;;;3.67;2.42;;;22.90;99.90;;;;;;4982202;28;20203;-77
2023/09/18 11:03:09;;;;;;;4.03;2.20;;;22.90;99.90;;;;;;4998417;28;20255;-77
2023/09/18 11:05:38;;;;;;;5.28;2.40;;;23.00;99.90;;;;;;4998144;28;20235;-77
2023/09/18 11:08:29;;;;;;;2.88;2.28;;;23.10;99.90;;;;;;4995875;28;20567;-77
2023/09/18 11:11:09;;;;;;;4.20;2.15;;;23.10;99.90;;;;;;4998305;28;20227;-78
2023/09/18 11:13:43;;;;;;;3.88;2.28;;;23.20;99.90;;;;;;5016501;28;20160;-78
2023/09/18 11:16:28;;;;;;;4.22;2.22;;;23.30;99.90;;;;;;4998913;28;20168;-77
2023/09/18 11:19:05;;;;;;;6.25;2.38;;;23.40;99.90;;;;;;4998782;28;20341;-77
2023/09/18 11:21:33;;;;;;;5.13;2.53;;;23.40;99.90;;;;;;4999146;28;20306;-77
2023/09/18 11:24:22;;;;;;;6.07;2.50;;;23.60;99.90;;;;;;4998536;28;20184;-77
2023/09/18 11:26:49;;;;;;;11.63;3.17;;;23.70;99.90;;;;;;4998512;28;20551;-78
2023/09/18 11:29:31;;;;;;;4.72;2.53;;;23.80;99.90;;;;;;4998673;28;20192;-77
2023/09/18 11:32:03;;;;;;;4.60;2.05;;;24.00;99.90;;;;;;4978689;28;20188;-77
2023/09/18 11:34:31;;;;;;;6.03;2.20;;;24.10;99.90;;;;;;5016570;28;20203;-77
2023/09/18 11:37:25;;;;;;;5.60;2.40;;;24.10;99.90;;;;;;4998614;28;20203;-78
2023/09/18 11:39:51;;;;;;;3.75;2.17;;;24.20;99.90;;;;;;4994372;28;20585;-77
2023/09/18 11:42:22;;;;;;;3.88;1.90;;;24.20;99.90;;;;;;4979100;28;20188;-77
2023/09/18 11:44:49;;;;;;;5.60;1.98;;;24.30;99.90;;;;;;4994946;28;20184;-77
2023/09/18 11:47:28;;;;;;;2.10;1.90;;;24.40;99.90;;;;;;4978338;28;20215;-78
2023/09/18 11:50:07;;;;;;;7.40;2.50;;;24.30;99.90;;;;;;4975096;28;20251;-77
2023/09/18 11:52:36;;;;;;;7.10;2.15;;;24.30;99.90;;;;;;4980244;28;20640;-77
2023/09/18 11:55:08;;;;;;;5.03;2.25;;;24.30;99.90;;;;;;4978892;28;20231;-77
2023/09/18 11:57:38;;;;;;;7.32;2.13;;;24.30;99.90;;;;;;4994673;28;20173;-77
2023/09/18 12:00:22;;;;;;;3.80;2.10;;;24.30;99.90;;;;;;4978606;28;20258;-78
2023/09/18 12:02:49;;;;;;;5.28;2.08;;;24.50;99.90;;;;;;4978608;28;20609;-78
2023/09/18 12:05:18;;;;;;;3.67;2.30;;;24.50;99.90;;;;;;4994636;28;20181;-77
2023/09/18 12:07:46;;;;;;;3.95;1.88;;;24.50;99.90;;;;;;4983000;28;20199;-77
2023/09/18 12:10:20;;;;;;;2.67;1.90;;;24.50;99.90;;;;;;4997496;28;20203;-78
2023/09/18 12:12:47;;;;;;;4.30;2.08;;;24.60;99.90;;;;;;5014703;28;20176;-77
2023/09/18 12:15:17;;;;;;;7.20;2.40;;;24.70;99.90;;;;;;4997169;28;20184;-77
2023/09/18 12:17:46;;;;;;;5.85;2.03;;;24.80;99.90;;;;;;4997406;28;20183;-78
2023/09/18 12:20:21;;;;;;;4.57;1.95;;;24.80;99.90;;;;;;4997024;28;20202;-77
2023/09/18 12:22:50;;;;;;;4.97;2.00;;;24.70;99.90;;;;;;4997731;28;20186;-77
2023/09/18 12:25:19;;;;;;;2.47;2.00;;;25.00;99.90;;;;;;5015052;28;20170;-78
2023/09/18 12:27:53;;;;;;;8.90;2.40;;;25.20;99.90;;;;;;5016033;28;20164;-78
2023/09/18 12:30:26;;;;;;;3.17;1.95;;;25.10;99.90;;;;;;4998664;28;20199;-78
2023/09/18 12:32:59;;;;;;;3.25;1.88;;;25.00;99.90;;;;;;4998496;28;20583;-78
2023/09/18 12:35:30;;;;;;;6.00;2.30;;;25.20;99.90;;;;;;5015816;28;20168;-78
2023/09/18 12:38:00;;;;;;;7.57;2.20;;;25.20;99.90;;;;;;4991742;28;20216;-78
2023/09/18 12:40:32;;;;;;;3.72;2.05;;;25.40;99.90;;;;;;4978203;28;20208;-78
2023/09/18 12:43:01;;;;;;;4.20;1.73;;;25.60;99.90;;;;;;4978712;28;20259;-78
2023/09/18 12:45:29;;;;;;;3.67;1.83;;;25.40;99.90;;;;;;4977647;28;20271;-78
2023/09/18 12:48:02;;;;;;;2.78;1.77;;;25.40;99.90;;;;;;4977256;28;20176;-77
2023/09/18 12:50:34;;;;;;;3.53;2.00;;;25.40;99.90;;;;;;4977503;28;20259;-77